Time;durP1;ratioP1;P1;durP2;ratioP2;P2;SDS_P1;SDS_P2;PMS_P1;PMS_P2;Temp;Humidity;BMP_temperature;BMP_pressure;BME280_temperature;BME280_humidity;BME280_pressure;Samples;Min_cycle;Max_cycle;Signal;HPM_P1;HPM_P2
2023/06/27 00:01:18;;;;;;;;;;;22.90;38.90;;;19.17;57.70;95897.06;4956751;28;19914;-44
2023/06/27 00:03:44;;;;;;;;;;;22.90;39.00;;;19.15;58.30;95890.41;4955373;28;19985;-45
2023/06/27 00:06:10;;;;;;;;;;;22.90;39.00;;;19.13;58.42;95887.22;4956400;28;20016;-45
2023/06/27 00:08:35;;;;;;;;;;;22.90;39.00;;;19.08;58.82;95892.72;4956419;28;19910;-47
2023/06/27 00:11:01;;;;;;;;;;;22.90;39.10;;;19.06;59.40;95900.38;4954037;28;19964;-48
2023/06/27 00:13:28;;;;;;;;;;;22.80;39.10;;;19.00;59.26;95898.91;4956373;28;19914;-46
2023/06/27 00:15:54;;;;;;;;;;;22.80;39.30;;;18.92;58.16;95890.44;4955451;28;19925;-46
2023/06/27 00:18:23;;;;;;;;;;;22.80;39.30;;;18.88;58.15;95897.56;4956375;28;19910;-46
2023/06/27 00:20:50;;;;;;;;;;;22.70;39.30;;;18.87;57.41;95901.38;4956421;28;19965;-45
2023/06/27 00:23:22;;;;;;;;;;;22.70;39.40;;;18.86;57.42;95901.69;4955606;28;19910;-48
2023/06/27 00:25:48;;;;;;;;;;;22.70;39.40;;;18.82;56.93;95903.41;4947235;28;20380;-52
2023/06/27 00:28:14;;;;;;;;;;;22.60;39.40;;;18.78;57.00;95900.53;4966358;28;19910;-52
2023/06/27 00:30:40;;;;;;;;;;;22.60;39.50;;;18.79;57.13;95904.81;4956155;28;19921;-51
2023/06/27 00:33:11;;;;;;;;;;;22.60;39.60;;;18.77;57.56;95907.06;4955195;28;19917;-52
2023/06/27 00:35:40;;;;;;;;;;;22.60;39.60;;;18.75;57.38;95911.16;4955938;28;19909;-50
2023/06/27 00:38:06;;;;;;;;;;;22.50;39.60;;;18.73;57.15;95914.94;4943968;28;20060;-49
2023/06/27 00:40:32;;;;;;;;;;;22.50;40.30;;;18.72;57.49;95912.53;4967924;28;20396;-51
2023/06/27 00:42:57;;;;;;;;;;;22.50;39.60;;;18.63;57.81;95912.47;4956106;28;20021;-51
2023/06/27 00:45:23;;;;;;;;;;;22.40;39.60;;;18.62;58.14;95907.41;4954717;28;19937;-51
2023/06/27 00:47:53;;;;;;;;;;;22.40;40.30;;;18.57;57.45;95911.00;4955802;28;19921;-49
2023/06/27 00:50:20;;;;;;;;;;;22.40;39.80;;;18.53;57.41;95912.72;4955488;28;19972;-52
2023/06/27 00:52:47;;;;;;;;;;;22.40;39.80;;;18.46;57.70;95913.16;4969466;28;19909;-49
2023/06/27 00:55:12;;;;;;;;;;;22.30;39.80;;;18.46;57.74;95918.56;4955689;28;19949;-52
2023/06/27 00:57:40;;;;;;;;;;;22.30;39.90;;;18.45;57.34;95924.25;4954725;28;20332;-51
2023/06/27 01:00:11;;;;;;;;;;;22.30;39.90;;;18.46;57.07;95915.06;4955195;28;20364;-51
2023/06/27 01:02:36;;;;;;;;;;;22.30;40.00;;;18.42;57.87;95916.75;4955760;28;20319;-51
2023/06/27 01:05:03;;;;;;;;;;;22.20;40.00;;;18.36;57.09;95923.38;4954592;28;19914;-51
2023/06/27 01:07:56;;;;;;;;;;;22.20;40.00;;;18.33;57.10;95927.47;4966969;28;19910;-50
2023/06/27 01:11:05;;;;;;;;;;;22.10;40.00;;;18.24;57.16;95923.94;4946004;28;19921;-51
2023/06/27 01:13:47;;;;;;;;;;;22.10;40.00;;;18.22;56.90;95921.53;4945829;28;19966;-47
2023/06/27 01:16:19;;;;;;;;;;;22.10;40.10;;;18.19;57.04;95922.16;4964313;28;19921;-49
2023/06/27 01:18:48;;;;;;;;;;;22.00;40.00;;;18.20;57.02;95921.03;4959161;28;20289;-48
2023/06/27 01:21:19;;;;;;;;;;;22.00;40.10;;;18.15;56.36;95925.75;4953833;28;20304;-51
2023/06/27 01:23:55;;;;;;;;;;;22.00;40.10;;;18.13;56.49;95923.34;4966343;28;20266;-50
2023/06/27 01:26:22;;;;;;;;;;;22.00;40.20;;;18.14;57.19;95930.34;4943858;28;19916;-44
2023/06/27 01:28:49;;;;;;;;;;;21.90;40.10;;;18.14;56.56;95932.25;4954004;28;19910;-45
2023/06/27 01:31:54;;;;;;;;;;;21.90;40.20;;;18.13;56.76;95931.44;4954984;28;19917;-44
2023/06/27 01:34:50;;;;;;;;;;;21.90;40.20;;;18.11;56.89;95936.34;4945603;28;19910;-51
2023/06/27 01:37:29;;;;;;;;;;;21.90;40.20;;;18.09;57.11;95932.38;4954911;28;19910;-50
2023/06/27 01:40:09;;;;;;;;;;;21.90;40.30;;;18.08;56.74;95934.25;4968318;28;19910;-51
2023/06/27 01:42:41;;;;;;;;;;;21.80;40.80;;;18.06;57.08;95928.38;4953553;28;20052;-48
2023/06/27 01:45:09;;;;;;;;;;;21.90;40.20;;;18.04;57.17;95925.19;4954920;28;20266;-44
2023/06/27 01:47:41;;;;;;;;;;;21.80;40.30;;;18.04;57.54;95930.56;4966670;28;20285;-50
2023/06/27 01:50:10;;;;;;;;;;;21.80;40.20;;;18.00;56.94;95925.00;4950880;28;20292;-50
2023/06/27 01:52:36;;;;;;;;;;;21.80;40.30;;;17.97;57.12;95930.19;4953434;28;19910;-51
2023/06/27 01:55:02;;;;;;;;;;;21.80;40.30;;;17.96;57.25;95928.63;4954529;28;19913;-51
2023/06/27 01:57:28;;;;;;;;;;;21.80;40.30;;;17.95;57.35;95927.78;4953658;28;19918;-51
2023/06/27 01:59:55;;;;;;;;;;;21.80;40.30;;;17.89;57.31;95926.31;4954410;28;19910;-52
2023/06/27 02:02:21;;;;;;;;;;;21.80;40.30;;;17.91;58.35;95923.31;4954616;28;20065;-51
2023/06/27 02:04:47;;;;;;;;;;;21.80;40.40;;;17.90;58.15;95924.44;4953552;28;20032;-50
2023/06/27 02:07:13;;;;;;;;;;;21.70;40.40;;;17.87;59.59;95928.53;4954182;28;19914;-51
2023/06/27 02:09:39;;;;;;;;;;;21.70;40.40;;;17.82;59.33;95930.53;4957592;28;19910;-52
2023/06/27 02:12:05;;;;;;;;;;;21.70;40.50;;;17.81;60.80;95927.03;4973835;28;19932;-49
2023/06/27 02:14:32;;;;;;;;;;;21.70;40.50;;;17.79;60.65;95926.53;4973550;28;20395;-49
2023/06/27 02:16:57;;;;;;;;;;;21.70;40.60;;;17.78;60.25;95920.34;4963994;28;19910;-49
2023/06/27 02:19:24;;;;;;;;;;;21.70;40.70;;;17.76;60.24;95921.72;4971935;28;19913;-51
2023/06/27 02:21:50;;;;;;;;;;;21.70;40.70;;;17.74;59.68;95915.84;4966880;28;19914;-49
2023/06/27 02:24:16;;;;;;;;;;;21.70;40.80;;;17.71;59.55;95913.75;4971858;28;19910;-50
2023/06/27 02:26:43;;;;;;;;;;;21.70;40.80;;;17.62;59.54;95913.66;4973460;28;19933;-50
2023/06/27 02:29:09;;;;;;;;;;;21.60;40.80;;;17.64;58.50;95918.72;4972029;28;19909;-51
2023/06/27 02:31:35;;;;;;;;;;;21.60;40.80;;;17.63;59.60;95912.56;4973203;28;19957;-48
2023/06/27 02:34:01;;;;;;;;;;;21.50;40.80;;;17.63;59.35;95909.84;4970364;28;19953;-51
2023/06/27 02:36:27;;;;;;;;;;;21.60;40.90;;;17.62;59.11;95908.28;4973422;28;19910;-49
2023/06/27 02:38:59;;;;;;;;;;;21.50;40.90;;;17.62;59.71;95902.88;4973222;28;20366;-50
2023/06/27 02:41:25;;;;;;;;;;;21.50;40.90;;;17.61;58.66;95903.97;4966233;28;19981;-48
2023/06/27 02:43:51;;;;;;;;;;;21.50;41.00;;;17.60;59.56;95910.47;4973233;28;19937;-50
2023/06/27 02:46:17;;;;;;;;;;;21.50;41.00;;;17.57;61.55;95913.75;4963242;28;19910;-49
2023/06/27 02:48:43;;;;;;;;;;;21.50;41.10;;;17.51;60.26;95912.25;4972157;28;20017;-50
2023/06/27 02:51:09;;;;;;;;;;;21.40;41.00;;;17.51;59.72;95904.97;4972798;28;20365;-50
2023/06/27 02:53:35;;;;;;;;;;;21.50;41.10;;;17.44;62.06;95911.88;4961141;28;19956;-51
2023/06/27 02:56:02;;;;;;;;;;;21.40;41.10;;;17.43;63.02;95915.69;4977432;28;19909;-47
2023/06/27 02:58:32;;;;;;;;;;;21.40;41.20;;;17.42;61.60;95914.84;4971435;28;19910;-47
2023/06/27 03:01:06;;;;;;;;;;;21.40;41.30;;;17.40;61.56;95916.28;4976943;28;20032;-51
2023/06/27 03:03:35;;;;;;;;;;;21.40;41.40;;;17.42;60.94;95914.06;4949016;28;19916;-48
2023/06/27 03:06:08;;;;;;;;;;;21.30;41.40;;;17.38;60.97;95911.16;4971952;28;19910;-49
2023/06/27 03:08:37;;;;;;;;;;;21.30;41.40;;;17.40;60.84;95906.28;4977101;28;19910;-49
2023/06/27 03:11:03;;;;;;;;;;;21.30;41.50;;;17.38;60.43;95911.16;4963919;28;19918;-50
2023/06/27 03:13:29;;;;;;;;;;;21.30;41.50;;;17.35;60.47;95906.38;4991654;28;19975;-49
2023/06/27 03:15:55;;;;;;;;;;;21.30;41.60;;;17.35;60.58;95909.88;4971701;28;20331;-51
2023/06/27 03:18:20;;;;;;;;;;;21.30;41.50;;;17.33;59.86;95919.38;4970026;28;19910;-49
2023/06/27 03:20:46;;;;;;;;;;;21.30;41.60;;;17.30;60.02;95923.44;4976523;28;20021;-49
2023/06/27 03:23:12;;;;;;;;;;;21.30;41.60;;;17.27;60.50;95924.03;4967600;28;20581;-45
2023/06/27 03:25:38;;;;;;;;;;;21.30;41.60;;;17.27;60.62;95929.44;4991588;28;19917;-46
2023/06/27 03:28:03;;;;;;;;;;;21.20;41.60;;;17.25;61.10;95928.91;4967155;28;20323;-48
2023/06/27 03:30:29;;;;;;;;;;;21.30;41.60;;;17.23;60.81;95920.34;4972707;28;19929;-49
2023/06/27 03:32:55;;;;;;;;;;;21.20;41.60;;;17.19;62.01;95930.13;4976609;28;20422;-46
2023/06/27 03:35:21;;;;;;;;;;;21.20;41.60;;;17.18;62.40;95935.81;4972424;28;19933;-45
2023/06/27 03:37:46;;;;;;;;;;;21.20;41.70;;;17.11;61.66;95920.06;4976385;28;19924;-48
2023/06/27 03:40:12;;;;;;;;;;;21.20;41.70;;;17.09;62.22;95930.31;4968260;28;19914;-47
2023/06/27 03:42:38;;;;;;;;;;;21.10;41.80;;;17.07;62.50;95933.28;4976162;28;19910;-47
2023/06/27 03:45:05;;;;;;;;;;;21.10;41.80;;;17.01;62.60;95928.28;4975534;28;19916;-48
2023/06/27 03:47:31;;;;;;;;;;;21.10;41.90;;;17.00;63.51;95932.09;4965800;28;19910;-47
2023/06/27 03:49:56;;;;;;;;;;;21.10;42.00;;;16.99;65.80;95931.28;4975936;28;19952;-45
2023/06/27 03:52:22;;;;;;;;;;;21.10;42.00;;;17.02;64.37;95927.22;4964439;28;19944;-44
2023/06/27 03:54:48;;;;;;;;;;;21.10;42.20;;;17.01;63.88;95929.09;4972442;28;20292;-48
2023/06/27 03:57:14;;;;;;;;;;;21.00;42.20;;;16.98;64.27;95924.28;4973926;28;19914;-47
2023/06/27 03:59:40;;;;;;;;;;;21.00;42.20;;;16.98;65.26;95924.28;4972054;28;19917;-51
2023/06/27 04:02:06;;;;;;;;;;;21.00;42.30;;;16.97;64.66;95930.00;4975964;28;20376;-44
2023/06/27 04:04:32;;;;;;;;;;;21.00;42.40;;;16.95;64.39;95929.47;4964448;28;19917;-47
2023/06/27 04:06:57;;;;;;;;;;;21.00;42.40;;;16.93;65.42;95926.31;4975908;28;19909;-51
2023/06/27 04:09:23;;;;;;;;;;;21.00;42.50;;;16.95;64.33;95926.78;4972281;28;19936;-46
2023/06/27 04:11:49;;;;;;;;;;;21.00;42.60;;;16.95;64.51;95929.47;4980041;28;20329;-45
2023/06/27 04:14:17;;;;;;;;;;;21.00;42.60;;;16.89;65.28;95931.44;4975930;28;19909;-47
2023/06/27 04:16:44;;;;;;;;;;;21.00;42.60;;;16.87;66.54;95939.03;4967669;28;20290;-46
2023/06/27 04:19:10;;;;;;;;;;;21.00;42.60;;;16.91;66.10;95931.16;4986912;28;19918;-46
2023/06/27 04:21:36;;;;;;;;;;;21.00;42.60;;;16.94;66.86;95930.59;4970001;28;19917;-44
2023/06/27 04:24:02;;;;;;;;;;;21.10;42.70;;;16.97;66.51;95930.78;4971849;28;19918;-50
2023/06/27 04:26:28;;;;;;;;;;;21.10;42.80;;;16.99;65.91;95933.19;4975514;28;19913;-48
2023/06/27 04:28:54;;;;;;;;;;;21.10;42.80;;;17.03;66.41;95934.97;4962640;28;19910;-44
2023/06/27 04:31:21;;;;;;;;;;;21.10;42.80;;;17.05;66.11;95921.25;4975540;28;19914;-48
2023/06/27 04:33:47;;;;;;;;;;;21.10;42.90;;;17.08;66.52;95920.66;4972471;28;19952;-45
2023/06/27 04:36:15;;;;;;;;;;;21.20;42.90;;;17.11;66.56;95922.75;4975293;28;19959;-45
2023/06/27 04:38:43;;;;;;;;;;;21.20;42.90;;;17.13;66.57;95920.53;4975144;28;19937;-44
2023/06/27 04:41:10;;;;;;;;;;;21.30;43.00;;;17.17;67.17;95918.84;4967381;28;19910;-46
2023/06/27 04:43:39;;;;;;;;;;;21.30;42.90;;;17.18;67.88;95931.22;4975109;28;19916;-49
2023/06/27 04:46:05;;;;;;;;;;;21.40;43.00;;;17.21;67.91;95927.13;4980812;28;20464;-45
2023/06/27 04:48:31;;;;;;;;;;;21.40;43.00;;;17.28;67.22;95924.84;4973277;28;19925;-51
2023/06/27 04:50:57;;;;;;;;;;;21.50;43.10;;;17.35;66.20;95927.94;4975015;28;20111;-51
2023/06/27 04:53:26;;;;;;;;;;;21.50;43.00;;;17.41;65.19;95934.81;4960793;28;20361;-53
2023/06/27 04:55:53;;;;;;;;;;;21.60;43.00;;;17.45;63.18;95940.38;4975134;28;19952;-53
2023/06/27 04:58:19;;;;;;;;;;;21.70;43.00;;;17.53;63.38;95931.63;4969463;28;20257;-53
2023/06/27 05:00:47;;;;;;;;;;;21.80;42.90;;;17.60;62.32;95936.59;4974999;28;19922;-54
2023/06/27 05:03:14;;;;;;;;;;;21.90;42.90;;;17.65;62.79;95941.91;4973734;28;19920;-50
2023/06/27 05:05:40;;;;;;;;;;;22.00;42.80;;;17.73;62.69;95930.41;4958644;28;19909;-50
2023/06/27 05:08:07;;;;;;;;;;;22.10;42.70;;;17.82;63.19;95928.63;4974514;28;19916;-48
2023/06/27 05:10:33;;;;;;;;;;;22.20;42.60;;;17.90;61.39;95927.91;4962777;28;20376;-48
2023/06/27 05:13:00;;;;;;;;;;;22.30;42.50;;;17.99;62.59;95920.72;4973532;28;19949;-50
2023/06/27 05:15:26;;;;;;;;;;;22.40;42.50;;;18.06;62.81;95933.78;4986473;28;19952;-51
2023/06/27 05:18:16;;;;;;;;;;;22.50;42.40;;;18.11;62.41;95938.25;4964519;28;19910;-52
2023/06/27 05:20:44;;;;;;;;;;;22.60;42.40;;;18.16;61.89;95922.75;4977116;28;19910;-52
2023/06/27 05:23:10;;;;;;;;;;;22.70;42.20;;;18.32;60.31;95925.09;4966014;28;19956;-52
2023/06/27 05:25:37;;;;;;;;;;;22.80;42.10;;;18.43;61.01;95921.06;4974652;28;19910;-54
2023/06/27 05:28:03;;;;;;;;;;;23.00;42.00;;;18.52;60.91;95923.81;4966700;28;19914;-54
2023/06/27 05:30:29;;;;;;;;;;;23.10;41.80;;;18.65;60.22;95922.97;4958528;28;20008;-53
2023/06/27 05:33:01;;;;;;;;;;;23.20;41.70;;;18.78;57.82;95927.53;4965152;28;19910;-50
2023/06/27 05:35:28;;;;;;;;;;;23.40;41.60;;;18.91;56.70;95925.84;4971237;28;20005;-51
2023/06/27 05:37:54;;;;;;;;;;;23.60;42.10;;;19.12;56.75;95928.81;4974044;28;20328;-53
2023/06/27 05:40:20;;;;;;;;;;;23.80;41.30;;;19.35;57.10;95933.03;4962085;28;19917;-53
2023/06/27 05:42:45;;;;;;;;;;;24.00;41.20;;;19.52;54.57;95937.69;4956821;28;19942;-53
2023/06/27 05:45:11;;;;;;;;;;;24.20;41.10;;;19.69;54.92;95931.59;4953627;28;19914;-50
2023/06/27 05:47:37;;;;;;;;;;;24.30;40.80;;;19.90;53.14;95925.59;4974363;28;20291;-51
2023/06/27 05:50:03;;;;;;;;;;;24.60;40.70;;;20.10;53.34;95928.50;4951263;28;19922;-52
2023/06/27 05:52:30;;;;;;;;;;;24.80;40.40;;;20.27;51.54;95927.69;4952739;28;19910;-53
2023/06/27 05:54:56;;;;;;;;;;;25.10;40.20;;;20.50;52.09;95927.56;4968908;28;19910;-51
2023/06/27 05:57:22;;;;;;;;;;;25.30;40.00;;;20.59;51.82;95932.97;4975369;28;19968;-51
2023/06/27 05:59:49;;;;;;;;;;;25.50;39.80;;;20.62;51.35;95932.31;4959523;28;20345;-52
2023/06/27 06:02:15;;;;;;;;;;;25.60;39.60;;;20.69;49.79;95921.84;4965033;28;20359;-50
2023/06/27 06:04:40;;;;;;;;;;;25.70;39.40;;;20.78;49.54;95923.41;4958689;28;19910;-54
2023/06/27 06:07:06;;;;;;;;;;;25.90;39.20;;;20.85;49.27;95919.41;4973391;28;19909;-53
2023/06/27 06:09:32;;;;;;;;;;;26.00;39.10;;;20.91;49.80;95923.53;4973506;28;19957;-52
2023/06/27 06:11:58;;;;;;;;;;;26.10;39.00;;;20.86;48.77;95919.06;4953775;28;19910;-52
2023/06/27 06:14:24;;;;;;;;;;;26.10;38.70;;;20.82;48.08;95920.06;4970222;28;19914;-50
2023/06/27 06:16:50;;;;;;;;;;;26.20;38.60;;;20.78;48.91;95909.06;4964145;28;20355;-52
2023/06/27 06:19:16;;;;;;;;;;;26.20;38.40;;;20.85;49.41;95922.91;4961340;28;19953;-53
2023/06/27 06:21:43;;;;;;;;;;;26.20;38.30;;;20.79;49.48;95921.47;4969144;28;19934;-53
2023/06/27 06:24:09;;;;;;;;;;;26.20;38.30;;;20.80;49.32;95917.66;4963274;28;20257;-54
2023/06/27 06:26:37;;;;;;;;;;;26.10;38.20;;;20.83;50.21;95922.44;4973491;28;19916;-51
2023/06/27 06:29:04;;;;;;;;;;;26.20;38.20;;;20.86;49.89;95921.00;4954529;28;20336;-49
2023/06/27 06:31:30;;;;;;;;;;;26.10;38.20;;;20.85;51.88;95928.31;4963143;28;19924;-50
2023/06/27 06:33:57;;;;;;;;;;;26.00;38.10;;;20.84;50.82;95923.22;4958821;28;19964;-51
2023/06/27 06:36:24;;;;;;;;;;;25.90;38.20;;;20.72;52.18;95929.31;4964546;28;19914;-49
2023/06/27 06:38:50;;;;;;;;;;;25.80;38.20;;;20.66;52.13;95934.09;4973398;28;19941;-48
2023/06/27 06:41:18;;;;;;;;;;;25.70;38.20;;;20.66;52.94;95936.78;4966588;28;19953;-48
2023/06/27 06:43:44;;;;;;;;;;;25.60;38.30;;;20.59;52.74;95925.66;4973125;28;19914;-49
2023/06/27 06:46:10;;;;;;;;;;;25.50;38.40;;;20.59;52.80;95924.84;4963981;28;19964;-47
2023/06/27 06:48:36;;;;;;;;;;;25.50;38.40;;;20.46;52.33;95915.75;4971293;28;20343;-51
2023/06/27 06:51:02;;;;;;;;;;;25.50;38.30;;;20.36;53.99;95922.28;4973206;28;19948;-54
2023/06/27 06:53:28;;;;;;;;;;;25.50;38.30;;;20.28;52.99;95918.47;4959337;28;19916;-53
2023/06/27 06:55:53;;;;;;;;;;;25.50;38.20;;;20.27;54.27;95926.91;4973421;28;20287;-50
2023/06/27 06:58:19;;;;;;;;;;;25.50;38.10;;;20.32;51.87;95924.84;4966848;28;19910;-54
2023/06/27 07:00:45;;;;;;;;;;;25.60;38.20;;;20.43;52.56;95919.91;4973086;28;19910;-52
2023/06/27 07:03:11;;;;;;;;;;;25.70;38.10;;;20.60;51.58;95929.94;4973145;28;20389;-52
2023/06/27 07:05:38;;;;;;;;;;;25.80;38.00;;;20.82;51.81;95931.66;4966590;28;19910;-54
2023/06/27 07:08:05;;;;;;;;;;;25.90;38.00;;;20.97;50.34;95930.38;4974198;28;20009;-50
2023/06/27 07:10:32;;;;;;;;;;;26.20;37.90;;;21.07;50.74;95924.59;4976512;28;19914;-51
2023/06/27 07:12:59;;;;;;;;;;;26.40;37.80;;;21.32;49.58;95925.63;4972169;28;19917;-51
2023/06/27 07:15:29;;;;;;;;;;;26.70;37.60;;;21.62;47.76;95926.50;4970320;28;19916;-49
2023/06/27 07:17:55;;;;;;;;;;;27.20;37.40;;;21.99;46.84;95928.66;4966214;28;19909;-54
2023/06/27 07:20:22;;;;;;;;;;;27.60;37.70;;;22.35;45.21;95922.69;4973126;28;19916;-54
2023/06/27 07:22:49;;;;;;;;;;;28.10;36.90;;;22.68;45.22;95920.00;4965385;28;20271;-53
2023/06/27 07:25:15;;;;;;;;;;;28.40;36.40;;;23.03;43.82;95916.97;4970402;28;20021;-53
2023/06/27 07:27:43;;;;;;;;;;;28.90;36.30;;;23.40;41.65;95915.09;4967250;28;19914;-53
2023/06/27 07:30:10;;;;;;;;;;;29.40;36.00;;;23.41;40.28;95915.88;4966687;28;19914;-52
2023/06/27 07:32:36;;;;;;;;;;;29.70;35.50;;;23.77;40.15;95915.91;4973101;28;19934;-53
2023/06/27 07:35:02;;;;;;;;;;;30.10;35.20;;;24.10;40.79;95914.16;4969901;28;20407;-50
2023/06/27 07:37:28;;;;;;;;;;;30.30;34.90;;;24.35;40.99;95912.19;4973000;28;20273;-48
2023/06/27 07:39:53;;;;;;;;;;;30.60;34.70;;;24.70;41.18;95918.69;4967623;28;19933;-49
2023/06/27 07:42:19;;;;;;;;;;;30.90;34.50;;;24.92;39.73;95913.81;4976551;28;20379;-55
2023/06/27 07:44:45;;;;;;;;;;;31.20;34.20;;;25.18;39.94;95907.09;4991692;28;19909;-52
2023/06/27 07:47:11;;;;;;;;;;;31.50;34.00;;;25.30;39.84;95904.28;4965245;28;19910;-54
2023/06/27 07:49:39;;;;;;;;;;;31.60;33.60;;;25.33;38.46;95907.09;4976053;28;20419;-52
2023/06/27 07:52:09;;;;;;;;;;;31.80;33.30;;;25.30;38.77;95902.34;4943792;28;19996;-54
2023/06/27 07:54:36;;;;;;;;;;;31.90;33.10;;;25.36;39.37;95911.06;4970404;28;20009;-54
2023/06/27 07:57:03;;;;;;;;;;;32.00;33.10;;;25.48;38.46;95904.72;4976106;28;19976;-52
2023/06/27 07:59:29;;;;;;;;;;;32.10;32.80;;;25.67;37.83;95907.53;4970592;28;19964;-55
2023/06/27 08:01:55;;;;;;;;;;;32.10;32.60;;;25.52;37.15;95908.34;4976117;28;20308;-50
2023/06/27 08:04:21;;;;;;;;;;;32.20;32.50;;;25.58;37.16;95902.25;4967558;28;19914;-52
2023/06/27 08:06:47;;;;;;;;;;;32.20;32.30;;;25.60;36.65;95901.88;4975950;28;19909;-54
2023/06/27 08:09:13;;;;;;;;;;;32.20;32.20;;;25.61;36.99;95909.75;4975403;28;19932;-49
2023/06/27 08:11:39;;;;;;;;;;;32.20;32.00;;;25.43;37.42;95908.50;4963929;28;20025;-54
2023/06/27 08:14:05;;;;;;;;;;;32.10;31.80;;;25.49;37.45;95901.66;4975933;28;19913;-54
2023/06/27 08:16:30;;;;;;;;;;;32.10;31.80;;;25.29;37.11;95894.50;4969446;28;20407;-53
2023/06/27 08:18:56;;;;;;;;;;;32.20;31.70;;;25.76;36.54;95890.97;4970113;28;20446;-54
2023/06/27 08:21:22;;;;;;;;;;;32.40;31.40;;;26.12;36.25;95897.25;4973145;28;19910;-50
2023/06/27 08:23:48;;;;;;;;;;;32.70;31.30;;;26.36;35.50;95888.03;4954981;28;19917;-50
2023/06/27 08:26:18;;;;;;;;;;;33.00;31.10;;;26.64;36.07;95901.50;4956535;28;20373;-54
2023/06/27 08:28:44;;;;;;;;;;;33.20;30.90;;;26.64;35.59;95899.53;4955177;28;20350;-54
2023/06/27 08:31:11;;;;;;;;;;;33.30;30.80;;;26.42;35.01;95897.47;4956605;28;20009;-54
2023/06/27 08:33:38;;;;;;;;;;;33.30;30.70;;;26.24;34.63;95894.41;4955940;28;20408;-54
2023/06/27 08:36:04;;;;;;;;;;;33.30;30.50;;;25.87;34.85;95896.72;4955950;28;19910;-52
2023/06/27 08:38:30;;;;;;;;;;;33.20;30.40;;;26.01;34.65;95903.28;4956042;28;19914;-52
2023/06/27 08:40:56;;;;;;;;;;;33.10;30.30;;;25.97;33.68;95904.34;4955640;28;20017;-53
2023/06/27 08:43:23;;;;;;;;;;;33.00;30.20;;;26.20;34.15;95905.25;4956040;28;19910;-53
2023/06/27 08:45:54;;;;;;;;;;;32.90;30.10;;;26.05;34.21;95895.94;4955473;28;19918;-52
2023/06/27 08:48:20;;;;;;;;;;;32.90;30.00;;;25.93;34.60;95896.06;4956117;28;19918;-51
2023/06/27 08:50:53;;;;;;;;;;;32.90;30.00;;;26.22;34.80;95902.16;4955779;28;20292;-51
2023/06/27 08:53:22;;;;;;;;;;;32.90;29.90;;;26.28;34.05;95900.72;4958958;28;20396;-54
2023/06/27 08:56:06;;;;;;;;;;;33.00;29.90;;;26.41;34.41;95898.63;4975465;28;19964;-55
2023/06/27 08:58:50;;;;;;;;;;;33.10;29.70;;;26.64;34.72;95896.03;4970299;28;19956;-54
2023/06/27 09:01:17;;;;;;;;;;;33.20;29.60;;;26.96;34.52;95893.91;4989777;28;20004;-54
2023/06/27 09:03:42;;;;;;;;;;;33.40;29.50;;;27.04;34.02;95889.31;4970426;28;19917;-53
2023/06/27 09:06:08;;;;;;;;;;;33.60;29.90;;;27.05;34.19;95893.66;4970360;28;19910;-54
2023/06/27 09:08:36;;;;;;;;;;;33.80;29.40;;;27.06;34.26;95885.09;4974911;28;20372;-53
2023/06/27 09:11:04;;;;;;;;;;;34.00;29.30;;;27.23;33.95;95889.31;4962196;28;19969;-54
2023/06/27 09:13:30;;;;;;;;;;;34.20;29.20;;;27.46;33.55;95889.31;4974697;28;20439;-55
2023/06/27 09:15:56;;;;;;;;;;;34.40;29.00;;;27.48;33.71;95883.47;4971632;28;19933;-55
2023/06/27 09:18:22;;;;;;;;;;;34.60;28.90;;;27.75;33.94;95878.81;4974585;28;20020;-54
2023/06/27 09:20:48;;;;;;;;;;;34.80;28.80;;;27.42;33.04;95878.31;4955717;28;19922;-54
2023/06/27 09:23:15;;;;;;;;;;;35.00;28.60;;;27.57;34.25;95876.56;4964834;28;20001;-55
2023/06/27 09:25:41;;;;;;;;;;;35.20;28.30;;;27.84;33.49;95873.88;4985844;28;19925;-54
2023/06/27 09:28:20;;;;;;;;;;;35.40;28.10;;;28.11;33.09;95869.97;4966427;28;19917;-54
2023/06/27 09:30:56;;;;;;;;;;;35.70;28.10;;;28.45;33.39;95874.72;4972421;28;19914;-54
2023/06/27 09:33:23;;;;;;;;;;;35.90;27.80;;;28.63;31.45;95863.97;4972052;28;19910;-55
2023/06/27 09:35:50;;;;;;;;;;;36.10;27.80;;;28.53;31.84;95874.44;4973399;28;19963;-54
2023/06/27 09:38:18;;;;;;;;;;;36.30;27.70;;;28.92;31.49;95879.53;4974457;28;19917;-55
2023/06/27 09:40:44;;;;;;;;;;;36.50;27.70;;;29.04;30.49;95881.25;4981918;28;19956;-53
2023/06/27 09:43:11;;;;;;;;;;;36.70;27.60;;;29.47;30.01;95887.13;4974139;28;19917;-54
2023/06/27 09:45:37;;;;;;;;;;;36.90;27.50;;;29.55;28.93;95888.75;4970077;28;20017;-54
2023/06/27 09:48:07;;;;;;;;;;;37.00;27.30;;;29.53;29.20;95882.88;4967204;28;20376;-55
2023/06/27 09:50:33;;;;;;;;;;;37.10;27.20;;;29.47;29.82;95887.13;4988460;28;19928;-55
2023/06/27 09:53:04;;;;;;;;;;;37.10;27.10;;;29.14;30.27;95896.25;4959282;28;19910;-54
2023/06/27 09:55:30;;;;;;;;;;;37.00;27.00;;;29.17;30.33;95881.78;4971788;28;19917;-55
2023/06/27 09:57:57;;;;;;;;;;;37.00;27.00;;;29.33;30.18;95887.00;4963199;28;19910;-55
2023/06/27 10:00:28;;;;;;;;;;;36.90;26.90;;;29.23;30.49;95888.50;4973891;28;19914;-54
2023/06/27 10:02:55;;;;;;;;;;;36.90;26.80;;;29.16;30.67;95881.00;4973112;28;19943;-54
2023/06/27 10:05:21;;;;;;;;;;;36.80;26.80;;;28.79;31.19;95870.78;4964610;28;19910;-54
2023/06/27 10:07:50;;;;;;;;;;;36.60;26.50;;;28.81;31.52;95878.66;4973668;28;19910;-55
2023/06/27 10:10:16;;;;;;;;;;;36.50;26.50;;;28.88;30.96;95872.47;4963919;28;19914;-53
2023/06/27 10:12:43;;;;;;;;;;;36.40;26.40;;;28.81;30.95;95878.66;4970155;28;20396;-55
2023/06/27 10:15:10;;;;;;;;;;;36.30;26.50;;;28.64;30.92;95874.53;4967823;28;19910;-54
2023/06/27 10:17:37;;;;;;;;;;;36.30;26.60;;;28.87;30.75;95873.63;4969724;28;20036;-54
2023/06/27 10:20:11;;;;;;;;;;;36.40;26.70;;;29.13;30.75;95868.03;4973692;28;19945;-54
2023/06/27 10:22:42;;;;;;;;;;;36.50;26.50;;;29.42;30.56;95868.28;4978808;28;19910;-54
2023/06/27 10:25:09;;;;;;;;;;;36.70;26.40;;;28.99;30.28;95865.94;4965976;28;19909;-55
2023/06/27 10:27:38;;;;;;;;;;;36.80;26.30;;;28.94;30.87;95862.72;4969550;28;19918;-53
2023/06/27 10:30:42;;;;;;;;;;;36.80;26.20;;;28.58;31.18;95862.34;4966267;28;19914;-55
2023/06/27 10:33:29;;;;;;;;;;;37.00;26.10;;;28.83;31.52;95857.94;4975868;28;19913;-54
2023/06/27 10:36:10;;;;;;;;;;;37.00;26.00;;;28.69;31.70;95854.25;4988297;28;19963;-55
2023/06/27 10:38:45;;;;;;;;;;;37.20;26.00;;;28.95;31.32;95853.34;4973347;28;19916;-53
2023/06/27 10:41:22;;;;;;;;;;;37.20;26.00;;;29.18;30.98;95858.69;4982545;28;19916;-55
2023/06/27 10:43:53;;;;;;;;;;;37.30;26.00;;;29.33;30.95;95860.34;4986987;28;19944;-54
2023/06/27 10:46:26;;;;;;;;;;;37.40;26.00;;;29.65;30.04;95857.13;4971953;28;20357;-54
2023/06/27 10:49:06;;;;;;;;;;;37.50;25.90;;;29.73;30.43;95847.75;4954894;23;19922;-47
2023/06/27 10:51:43;;;;;;;;;;;37.80;25.80;;;30.03;30.43;95838.53;4944707;29;19961;-48
2023/06/27 10:54:11;;;;;;;;;;;37.90;25.70;;;30.38;29.62;95846.16;4931785;29;19949;-47
2023/06/27 10:56:44;;;;;;;;;;;38.20;25.70;;;30.51;29.38;95844.63;4948215;29;20380;-47
2023/06/27 10:59:16;;;;;;;;;;;38.40;25.60;;;30.29;29.51;95846.53;4946057;28;20023;-47
2023/06/27 11:02:00;;;;;;;;;;;38.60;25.50;;;30.48;29.39;95859.16;4952774;28;19993;-48
2023/06/27 11:04:44;;;;;;;;;;;38.60;25.30;;;29.92;29.87;95847.47;4943736;28;19918;-47
2023/06/27 11:07:21;;;;;;;;;;;38.40;25.20;;;30.16;29.69;95848.78;4947323;28;19973;-48
2023/06/27 11:09:54;;;;;;;;;;;38.30;25.20;;;30.29;29.22;95841.03;4935393;29;20012;-50
2023/06/27 11:12:21;;;;;;;;;;;38.40;25.20;;;30.33;29.89;95838.28;4953004;28;19910;-50
2023/06/27 11:14:53;;;;;;;;;;;38.50;25.20;;;30.75;29.06;95848.66;4954897;28;20001;-50
2023/06/27 11:17:19;;;;;;;;;;;38.60;25.10;;;30.96;28.94;95838.88;4950799;28;19914;-51
2023/06/27 11:19:45;;;;;;;;;;;38.90;25.10;;;30.82;28.91;95840.44;4971159;28;20377;-49
2023/06/27 11:22:12;;;;;;;;;;;39.20;25.00;;;31.01;28.36;95839.28;4948418;28;19914;-47